Time;durP1;ratioP1;P1;durP2;ratioP2;P2;SDS_P1;SDS_P2;PMS_P1;PMS_P2;Temp;Humidity;BMP_temperature;BMP_pressure;BME280_temperature;BME280_humidity;BME280_pressure;Samples;Min_cycle;Max_cycle;Signal;HPM_P1;HPM_P2
2021/11/19 00:00:41;;;;;;;46.93;32.80;;;;;;;1.51;97.20;101405.75;1444956;91;21804;-88
2021/11/19 00:03:09;;;;;;;47.73;33.40;;;;;;;1.52;97.33;101408.28;1406950;91;22670;-88
2021/11/19 00:05:37;;;;;;;47.70;33.80;;;;;;;1.52;97.76;101410.05;1402511;91;22124;-88
2021/11/19 00:08:05;;;;;;;49.50;33.40;;;;;;;1.55;97.58;101412.52;1399020;92;22291;-88
2021/11/19 00:10:35;;;;;;;52.20;35.00;;;;;;;1.58;97.47;101410.66;1400404;91;21800;-87
2021/11/19 00:13:04;;;;;;;49.07;32.70;;;;;;;1.61;97.66;101411.41;1407672;91;21726;-88
2021/11/19 00:15:34;;;;;;;48.70;34.03;;;;;;;1.67;97.54;101412.02;1398114;91;21786;-88
2021/11/19 00:18:02;;;;;;;49.97;36.30;;;;;;;1.70;97.44;101412.34;1400265;91;22699;-88
2021/11/19 00:20:32;;;;;;;51.53;36.53;;;;;;;1.77;97.36;101407.23;1406460;91;22901;-88
2021/11/19 00:23:02;;;;;;;55.97;37.97;;;;;;;1.80;97.40;101405.33;1409429;91;21641;-88
2021/11/19 00:25:31;;;;;;;55.33;37.65;;;;;;;1.83;97.64;101396.98;1411016;91;21808;-87
2021/11/19 00:28:00;;;;;;;55.23;37.37;;;;;;;1.88;97.51;101389.34;1411648;91;21439;-88
2021/11/19 00:30:35;;;;;;;51.73;36.33;;;;;;;1.92;97.63;101388.27;1456860;91;21660;-88
2021/11/19 00:33:04;;;;;;;53.67;35.23;;;;;;;1.95;97.65;101383.38;1402237;92;21829;-88
2021/11/19 00:35:34;;;;;;;51.47;36.47;;;;;;;1.96;97.92;101371.57;1356899;92;21701;-88
2021/11/19 00:38:02;;;;;;;55.45;36.95;;;;;;;1.97;98.22;101362.81;1488343;91;21452;-86
2021/11/19 00:40:43;;;;;;;50.33;35.60;;;;;;;1.97;99.07;101352.83;1426184;91;21438;-87
2021/11/19 00:43:12;;;;;;;51.65;36.00;;;;;;;1.98;99.82;101344.06;1425194;91;21774;-88
2021/11/19 00:45:39;;;;;;;52.47;35.60;;;;;;;2.03;100.00;101335.58;1338606;94;21321;-88
2021/11/19 00:48:08;;;;;;;50.50;34.10;;;;;;;2.05;100.00;101328.98;1323471;94;21854;-88
2021/11/19 00:50:44;;;;;;;57.23;36.73;;;;;;;2.05;100.00;101328.98;1488565;91;21728;-88
2021/11/19 00:53:11;;;;;;;53.10;35.80;;;;;;;2.06;100.00;101325.45;1484310;91;21656;-88
2021/11/19 00:55:40;;;;;;;48.97;35.57;;;;;;;2.08;100.00;101299.66;1402183;91;22877;-87
2021/11/19 00:58:08;;;;;;;52.17;34.27;;;;;;;2.08;100.00;101299.66;1417753;91;22060;-88
2021/11/19 01:00:45;;;;;;;52.10;35.73;;;;;;;2.15;100.00;101318.48;1414074;91;21769;-88
2021/11/19 01:03:12;;;;;;;48.03;33.50;;;;;;;2.18;100.00;101317.88;1415568;91;21751;-88
2021/11/19 01:05:40;;;;;;;50.93;33.80;;;;;;;2.29;100.00;101329.59;1409566;91;21756;-87
2021/11/19 01:08:07;;;;;;;48.03;32.60;;;;;;;2.32;100.00;101330.75;1407186;91;21911;-87
2021/11/19 01:10:37;;;;;;;50.53;34.67;;;;;;;2.32;100.00;101330.75;1413369;91;22053;-88
2021/11/19 01:13:08;;;;;;;53.77;36.73;;;;;;;2.42;100.00;101325.03;1420227;91;21870;-87
2021/11/19 01:15:41;;;;;;;50.45;33.83;;;;;;;2.42;100.00;101325.03;1413870;91;21763;-88
2021/11/19 01:18:24;;;;;;;54.43;36.73;;;;;;;2.46;100.00;101327.87;1413022;91;21641;-88
2021/11/19 01:21:10;;;;;;;51.57;33.57;;;;;;;2.48;100.00;101327.81;1413569;91;23014;-89
2021/11/19 01:23:38;;;;;;;56.30;37.53;;;;;;;2.51;100.00;101332.89;1400637;91;22069;-88
2021/11/19 01:26:21;;;;;;;54.33;36.77;;;;;;;2.57;100.00;101331.75;1426628;91;21759;-88
2021/11/19 01:28:53;;;;;;;52.97;36.00;;;;;;;2.62;100.00;101322.77;1415481;91;22183;-88
2021/11/19 01:31:28;;;;;;;54.70;35.80;;;;;;;2.62;100.00;101322.77;1418163;91;21999;-88
2021/11/19 01:33:56;;;;;;;52.43;33.40;;;;;;;2.64;100.00;101318.75;1412357;91;23756;-88
2021/11/19 01:36:24;;;;;;;57.63;36.53;;;;;;;2.66;100.00;101316.92;1417087;91;22198;-88
2021/11/19 01:38:52;;;;;;;49.93;33.43;;;;;;;2.66;100.00;101316.92;1412053;91;22102;-87
2021/11/19 01:41:25;;;;;;;55.63;33.93;;;;;;;2.65;100.00;101306.93;1492386;91;21803;-87
2021/11/19 01:43:55;;;;;;;52.43;32.97;;;;;;;2.67;100.00;101314.21;1449421;91;21897;-87
2021/11/19 01:46:28;;;;;;;56.55;35.90;;;;;;;2.67;100.00;101314.21;1416686;91;22086;-87
2021/11/19 01:48:57;;;;;;;47.60;30.43;;;;;;;2.69;100.00;101321.99;1416613;91;23815;-87
2021/11/19 01:51:38;;;;;;;50.57;30.47;;;;;;;2.67;100.00;101315.52;1493625;91;21810;-87
2021/11/19 01:54:18;;;;;;;;;;;;;;;2.67;100.00;101315.52;1333265;93;23076;-87
2021/11/19 01:57:07;;;;;;;54.77;33.33;;;;;;;2.68;100.00;101305.47;1480497;91;20302;-87
2021/11/19 01:59:46;;;;;;;51.33;30.90;;;;;;;2.73;100.00;101318.77;1376153;94;22146;-86
2021/11/19 02:02:25;;;;;;;47.43;30.23;;;;;;;2.69;100.00;101307.62;1405785;92;21927;-86
2021/11/19 02:05:01;;;;;;;44.20;28.07;;;;;;;2.71;100.00;101311.85;1405744;91;22268;-86
2021/11/19 02:07:33;;;;;;;48.57;28.07;;;;;;;2.64;100.00;101298.68;1404538;91;23940;-86
2021/11/19 02:10:21;;;;;;;43.47;29.87;;;;;;;2.66;100.00;101294.23;1405701;92;22119;-85
2021/11/19 02:13:06;;;;;;;41.87;28.10;;;;;;;2.66;100.00;101294.23;1415734;91;21903;-86
2021/11/19 02:15:51;;;;;;;42.43;26.37;;;;;;;2.67;100.00;101302.45;1416680;91;22961;-85
2021/11/19 02:18:33;;;;;;;42.43;27.20;;;;;;;2.63;100.00;101304.00;1413442;91;23257;-86
2021/11/19 02:21:15;;;;;;;42.17;27.53;;;;;;;2.61;100.00;101306.67;1407736;91;21925;-85
2021/11/19 02:24:08;;;;;;;39.63;27.13;;;;;;;2.61;100.00;101306.67;1414379;91;23023;-86
2021/11/19 02:26:48;;;;;;;41.03;27.17;;;;;;;2.56;100.00;101293.45;1413588;91;22062;-86
2021/11/19 02:29:16;;;;;;;42.87;27.93;;;;;;;2.54;100.00;101284.39;1409296;91;21833;-85
2021/11/19 02:31:52;;;;;;;39.63;25.07;;;;;;;2.54;100.00;101284.39;1367844;91;21882;-85
2021/11/19 02:34:23;;;;;;;38.17;23.67;;;;;;;2.52;100.00;101282.77;1410369;91;22070;-86
2021/11/19 02:37:03;;;;;;;;;;;;;;;2.52;100.00;101290.14;1439307;92;23297;-85
2021/11/19 02:39:38;;;;;;;43.27;27.77;;;;;;;2.44;100.00;101285.28;1498329;91;20258;-86
2021/11/19 02:42:12;;;;;;;43.70;28.30;;;;;;;2.44;100.00;101285.28;1442717;91;21720;-85
2021/11/19 02:44:42;;;;;;;37.90;24.83;;;;;;;2.48;100.00;101289.45;1348753;91;21744;-85
2021/11/19 02:47:14;;;;;;;45.30;27.17;;;;;;;2.48;100.00;101289.45;1434102;91;21757;-86
2021/11/19 02:49:44;;;;;;;36.43;25.07;;;;;;;2.51;100.00;101281.93;1453919;91;21567;-86
2021/11/19 02:52:29;;;;;;;39.03;24.47;;;;;;;2.44;100.00;101266.15;1437506;91;21818;-86
2021/11/19 02:54:59;;;;;;;46.27;26.77;;;;;;;2.47;100.00;101270.79;1413325;91;22011;-86
2021/11/19 02:57:31;;;;;;;39.42;25.02;;;;;;;2.47;100.00;101270.79;1397680;93;22093;-86
2021/11/19 02:59:58;;;;;;;;;;;;;;;2.47;100.00;101268.61;1387909;93;21347;-86
2021/11/19 03:02:30;;;;;;;40.47;25.20;;;;;;;2.46;100.00;101261.70;1379706;94;20578;-86
2021/11/19 03:05:05;;;;;;;41.60;26.40;;;;;;;2.43;100.00;101240.95;1398357;93;21876;-86
2021/11/19 03:07:33;;;;;;;44.13;26.93;;;;;;;2.43;100.00;101240.95;1393696;93;23148;-86
2021/11/19 03:10:18;;;;;;;39.50;25.23;;;;;;;2.42;100.00;101240.11;1386997;93;21814;-85
2021/11/19 03:12:46;;;;;;;39.37;25.60;;;;;;;2.37;100.00;101229.50;1387824;93;22502;-85
2021/11/19 03:15:19;;;;;;;36.73;25.47;;;;;;;2.34;100.00;101236.19;1387354;93;22068;-85
2021/11/19 03:17:46;;;;;;;35.63;25.20;;;;;;;2.34;100.00;101241.41;1388668;94;21910;-85
2021/11/19 03:20:17;;;;;;;36.77;25.40;;;;;;;2.34;100.00;101241.41;1389170;94;22035;-86
2021/11/19 03:22:47;;;;;;;38.50;27.02;;;;;;;2.42;100.00;101258.88;1366276;94;22281;-86
2021/11/19 03:25:17;;;;;;;43.63;26.20;;;;;;;2.38;100.00;101257.31;1464227;94;21281;-86
2021/11/19 03:27:45;;;;;;;36.73;22.93;;;;;;;2.37;100.00;101249.09;1458609;93;22744;-85
2021/11/19 03:30:17;;;;;;;40.93;26.53;;;;;;;2.42;100.00;101251.03;1460762;93;21362;-85
2021/11/19 03:32:45;;;;;;;;;;;;;;;2.43;100.00;101240.95;1464031;93;21807;-86
2021/11/19 03:35:14;;;;;;;39.40;27.23;;;;;;;2.43;100.00;101237.03;1471085;93;20454;-85
2021/11/19 03:37:48;;;;;;;41.03;27.70;;;;;;;2.42;100.00;101234.05;1306303;94;21729;-85
2021/11/19 03:40:20;;;;;;;41.77;25.77;;;;;;;2.42;100.00;101231.44;1463240;94;21745;-85
2021/11/19 03:42:51;;;;;;;35.50;23.87;;;;;;;2.44;100.00;101234.80;1456576;93;22635;-86
2021/11/19 03:45:30;;;;;;;38.17;25.32;;;;;;;2.40;100.00;101230.19;1329832;93;21644;-85
2021/11/19 03:47:58;;;;;;;41.47;27.03;;;;;;;2.49;100.00;101228.89;1381407;93;21447;-86
2021/11/19 03:50:40;;;;;;;35.17;23.87;;;;;;;2.53;100.00;101218.66;1464961;93;21836;-85
2021/11/19 03:53:10;;;;;;;35.90;23.30;;;;;;;2.58;100.00;101228.42;1359708;93;21745;-85
2021/11/19 03:55:40;;;;;;;35.83;25.03;;;;;;;2.58;100.00;101228.42;1457289;91;21883;-86
2021/11/19 03:58:08;;;;;;;36.20;25.40;;;;;;;2.60;100.00;101237.51;1373051;91;22624;-84
2021/11/19 04:00:40;;;;;;;37.00;25.97;;;;;;;2.63;100.00;101231.66;1479290;92;21329;-85
2021/11/19 04:03:10;;;;;;;38.87;25.17;;;;;;;2.63;100.00;101227.73;1479428;92;21746;-85
2021/11/19 04:05:38;;;;;;;42.70;26.23;;;;;;;2.71;100.00;101221.67;1373707;91;21996;-86
2021/11/19 04:08:06;;;;;;;39.57;25.40;;;;;;;2.71;100.00;101221.67;1385585;91;22872;-86
2021/11/19 04:10:35;;;;;;;33.93;24.37;;;;;;;2.81;100.00;101229.03;1491111;91;21764;-85
2021/11/19 04:13:02;;;;;;;37.90;23.33;;;;;;;2.87;100.00;101212.56;1492105;91;21683;-86
2021/11/19 04:15:34;;;;;;;36.93;24.40;;;;;;;2.91;100.00;101209.35;1490669;91;21987;-86
2021/11/19 04:18:02;;;;;;;33.53;22.80;;;;;;;2.92;100.00;101224.11;1490235;91;21860;-85
2021/11/19 04:20:30;;;;;;;36.27;25.00;;;;;;;2.92;100.00;101231.89;1491727;91;21654;-86
2021/11/19 04:22:58;;;;;;;39.47;24.80;;;;;;;2.93;100.00;101231.89;1489768;91;22097;-86
2021/11/19 04:25:27;;;;;;;33.03;21.47;;;;;;;2.91;99.67;101212.70;1436547;91;22025;-86
2021/11/19 04:27:55;;;;;;;35.90;23.43;;;;;;;2.88;98.99;101200.36;1389377;90;22094;-86
2021/11/19 04:30:27;;;;;;;33.57;23.60;;;;;;;2.88;98.99;101200.36;1468250;91;22162;-86
2021/11/19 04:32:56;;;;;;;34.43;23.03;;;;;;;2.82;98.78;101183.22;1409857;91;22343;-86
2021/11/19 04:35:25;;;;;;;34.97;22.93;;;;;;;2.78;98.75;101178.22;1412378;91;22066;-86
2021/11/19 04:37:53;;;;;;;37.10;24.03;;;;;;;2.69;99.01;101158.63;1414331;91;22400;-86
2021/11/19 04:40:21;;;;;;;35.57;24.57;;;;;;;2.63;99.14;101159.78;1412765;91;22902;-86
2021/11/19 04:42:49;;;;;;;41.57;24.90;;;;;;;2.61;99.62;101165.55;1404165;91;23446;-86
2021/11/19 04:45:22;;;;;;;38.17;23.23;;;;;;;2.61;99.91;101164.23;1411387;91;21802;-86
2021/11/19 04:47:50;;;;;;;38.33;25.57;;;;;;;2.61;99.91;101164.23;1408105;91;21920;-86
2021/11/19 04:50:21;;;;;;;37.30;23.97;;;;;;;2.58;99.91;101151.80;1407124;91;21922;-86
2021/11/19 04:52:49;;;;;;;37.27;24.30;;;;;;;2.62;99.89;101157.27;1413670;91;21822;-86
2021/11/19 04:55:21;;;;;;;42.00;26.20;;;;;;;2.62;99.89;101157.27;1405949;91;22046;-86
2021/11/19 04:57:48;;;;;;;36.37;24.70;;;;;;;2.67;99.40;101156.08;1392848;92;22942;-86
2021/11/19 05:00:27;;;;;;;40.23;26.93;;;;;;;2.67;99.40;101156.08;1388324;94;24740;-86
2021/11/19 05:02:54;;;;;;;40.37;26.43;;;;;;;2.73;99.38;101160.61;1389032;93;22131;-86
2021/11/19 05:05:23;;;;;;;39.27;25.57;;;;;;;2.65;99.28;101140.95;1388265;93;21812;-88
2021/11/19 05:07:53;;;;;;;41.30;27.67;;;;;;;2.65;99.28;101140.95;1383854;94;21907;-86
2021/11/19 05:10:20;;;;;;;41.60;26.17;;;;;;;2.63;99.28;101151.10;1374667;94;23081;-87
2021/11/19 05:12:53;;;;;;;44.60;26.27;;;;;;;2.60;99.33;101148.19;1385650;92;22025;-86
2021/11/19 05:15:23;;;;;;;44.07;27.57;;;;;;;2.52;99.77;101120.75;1385477;93;21903;-87
2021/11/19 05:17:50;;;;;;;44.20;26.93;;;;;;;2.52;99.77;101120.75;1464053;93;21705;-88
2021/11/19 05:20:22;;;;;;;39.93;25.90;;;;;;;2.53;99.67;101157.24;1462759;92;21918;-87
2021/11/19 05:22:51;;;;;;;;;;;;;;;2.53;99.67;101157.24;1465410;93;21881;-87
2021/11/19 05:25:23;;;;;;;45.33;30.07;;;;;;;2.53;100.00;101164.24;1459160;93;20239;-87
2021/11/19 05:27:51;;;;;;;44.53;28.80;;;;;;;2.53;100.00;101164.24;1383164;93;23146;-86
2021/11/19 05:30:21;;;;;;;43.53;27.33;;;;;;;2.61;100.00;101174.69;1475554;93;21684;-86
2021/11/19 05:32:49;;;;;;;48.50;27.23;;;;;;;2.61;100.00;101174.69;1444489;92;21910;-87
2021/11/19 05:35:18;;;;;;;47.33;28.77;;;;;;;2.64;100.00;101175.84;1456304;93;21659;-87
2021/11/19 05:37:51;;;;;;;43.03;28.47;;;;;;;2.71;100.00;101175.08;1329367;93;21785;-87
2021/11/19 05:40:22;;;;;;;39.70;25.70;;;;;;;2.71;100.00;101170.70;1470459;93;22869;-88
2021/11/19 05:42:51;;;;;;;42.23;28.85;;;;;;;2.76;100.00;101182.20;1422580;93;22946;-87
2021/11/19 05:45:21;;;;;;;40.77;27.10;;;;;;;2.85;100.00;101163.89;1475282;93;21339;-88
2021/11/19 05:47:49;;;;;;;44.25;27.22;;;;;;;2.85;100.00;101163.89;1385347;93;22712;-88
2021/11/19 05:50:21;;;;;;;45.20;29.50;;;;;;;2.88;100.00;101167.67;1467482;93;21410;-88
2021/11/19 05:52:49;;;;;;;41.43;27.00;;;;;;;2.91;100.00;101175.36;1444382;94;21913;-88
2021/11/19 05:55:20;;;;;;;44.30;25.73;;;;;;;2.89;100.00;101168.05;1473668;93;21819;-87
2021/11/19 05:57:48;;;;;;;38.93;25.53;;;;;;;2.89;100.00;101181.12;1445995;90;22240;-92
2021/11/19 06:00:21;;;;;;;41.13;27.80;;;;;;;2.89;100.00;101172.75;1389108;93;22220;-89
2021/11/19 06:02:56;;;;;;;44.07;26.70;;;;;;;2.92;99.45;101191.42;1390172;92;23279;-90
2021/11/19 06:05:23;;;;;;;37.93;24.33;;;;;;;2.92;99.45;101191.42;1375371;94;21938;-90
2021/11/19 06:07:51;;;;;;;40.07;25.60;;;;;;;2.93;99.82;101200.95;1389556;94;23011;-89
2021/11/19 06:10:25;;;;;;;45.33;27.83;;;;;;;2.95;99.59;101195.18;1379421;94;21932;-89
2021/11/19 06:12:56;;;;;;;41.17;25.27;;;;;;;2.99;99.13;101208.47;1385063;94;22202;-87
2021/11/19 06:15:28;;;;;;;37.40;23.03;;;;;;;2.99;99.13;101198.00;1392552;94;23298;-88
2021/11/19 06:18:01;;;;;;;39.27;24.57;;;;;;;3.00;98.47;101193.17;1389464;93;22258;-87
2021/11/19 06:20:43;;;;;;;34.63;22.13;;;;;;;3.00;98.47;101193.17;1392938;94;22141;-88
2021/11/19 06:23:15;;;;;;;36.17;23.83;;;;;;;2.94;98.35;101185.19;1388503;92;22177;-91
2021/11/19 06:25:43;;;;;;;35.93;23.50;;;;;;;3.03;98.43;101183.86;1384220;93;24122;-87
2021/11/19 06:28:17;;;;;;;36.10;25.00;;;;;;;3.06;98.33;101174.55;1372726;94;22139;-87
2021/11/19 06:30:46;;;;;;;39.40;23.97;;;;;;;3.03;98.20;101143.33;1373958;95;22069;-86
2021/11/19 06:33:16;;;;;;;38.47;22.50;;;;;;;3.03;98.20;101143.33;1389000;92;22156;-87
2021/11/19 06:35:43;;;;;;;39.77;23.83;;;;;;;3.04;97.87;101125.39;1347576;93;22027;-86
2021/11/19 06:38:10;;;;;;;36.00;21.90;;;;;;;3.04;97.87;101125.39;1459831;94;21962;-87
2021/11/19 06:40:39;;;;;;;33.37;22.20;;;;;;;3.09;97.53;101139.07;1467589;93;21938;-86
2021/11/19 06:43:07;;;;;;;31.37;22.10;;;;;;;3.12;97.68;101147.22;1475028;93;21977;-87
2021/11/19 06:45:35;;;;;;;32.60;21.07;;;;;;;3.12;97.68;101147.22;1475217;93;22796;-87
2021/11/19 06:48:05;;;;;;;36.83;23.77;;;;;;;3.16;97.73;101160.06;1368312;93;22236;-86
2021/11/19 06:50:37;;;;;;;38.48;22.85;;;;;;;3.16;97.73;101160.06;1471429;92;23395;-87
2021/11/19 06:53:06;;;;;;;34.00;21.37;;;;;;;3.24;97.76;101176.64;1463421;93;22210;-86
2021/11/19 06:55:34;;;;;;;36.77;22.93;;;;;;;3.27;97.66;101167.31;1405478;94;22041;-87
2021/11/19 06:58:04;;;;;;;38.90;23.43;;;;;;;3.37;97.35;101174.22;1379504;92;22193;-87
2021/11/19 07:00:37;;;;;;;32.63;22.07;;;;;;;3.41;97.25;101169.66;1467999;93;22013;-88
2021/11/19 07:03:04;;;;;;;32.50;21.73;;;;;;;3.43;96.96;101167.34;1454060;93;21948;-87
2021/11/19 07:05:31;;;;;;;31.23;21.17;;;;;;;3.44;96.88;101159.86;1465706;94;22082;-87
2021/11/19 07:08:05;;;;;;;33.57;22.93;;;;;;;3.48;96.67;101162.71;1422948;89;22508;-87
2021/11/19 07:10:34;;;;;;;33.53;21.63;;;;;;;3.53;96.79;101160.66;1436334;89;23068;-87
2021/11/19 07:13:02;;;;;;;39.27;21.70;;;;;;;3.60;96.61;101169.88;1438059;90;22190;-87
2021/11/19 07:15:30;;;;;;;33.20;21.73;;;;;;;3.63;96.48;101174.10;1435177;90;22242;-87
2021/11/19 07:17:59;;;;;;;33.97;21.30;;;;;;;3.65;95.86;101174.00;1438255;90;22249;-86
2021/11/19 07:20:28;;;;;;;30.97;21.80;;;;;;;3.67;95.87;101173.46;1437420;89;22176;-87
2021/11/19 07:22:58;;;;;;;32.10;19.80;;;;;;;3.70;95.92;101181.98;1435834;90;22302;-87
2021/11/19 07:25:29;;;;;;;28.27;19.95;;;;;;;3.72;95.85;101187.98;1441840;90;22217;-88
2021/11/19 07:28:00;;;;;;;32.03;20.72;;;;;;;3.72;95.71;101180.60;1430801;90;21618;-87
2021/11/19 07:30:30;;;;;;;;;;;;;;;3.74;95.66;101183.95;1444109;90;23454;-87
2021/11/19 07:32:58;;;;;;;31.35;19.75;;;;;;;3.71;95.42;101177.15;1427598;90;20925;-87
2021/11/19 07:35:26;;;;;;;24.70;17.50;;;;;;;3.73;95.74;101172.65;1417606;91;21975;-85
2021/11/19 07:37:54;;;;;;;29.50;18.17;;;;;;;3.79;96.04;101174.08;1421203;91;22138;-87
2021/11/19 07:40:27;;;;;;;28.03;18.90;;;;;;;3.81;95.33;101148.66;1418124;91;22851;-86
2021/11/19 07:42:54;;;;;;;30.43;18.00;;;;;;;3.81;95.33;101148.66;1413229;92;21512;-86
2021/11/19 07:45:24;;;;;;;40.63;20.63;;;;;;;3.95;96.46;101153.96;1376522;93;22237;-87
2021/11/19 07:47:53;;;;;;;30.63;18.27;;;;;;;4.10;95.95;101138.30;1391254;93;23200;-87
2021/11/19 07:50:25;;;;;;;27.20;17.80;;;;;;;4.10;95.95;101132.52;1393452;93;21664;-87
2021/11/19 07:52:52;;;;;;;28.70;18.20;;;;;;;4.19;95.36;101132.52;1401132;92;21392;-87
2021/11/19 07:55:22;;;;;;;28.07;16.33;;;;;;;4.29;95.47;101138.92;1389436;93;21362;-83
2021/11/19 07:57:50;;;;;;;25.80;17.57;;;;;;;4.40;94.54;101148.31;1431734;89;21561;-84
2021/11/19 08:00:25;;;;;;;25.83;14.47;;;;;;;4.46;93.51;101151.02;1436864;90;21471;-83
2021/11/19 08:02:53;;;;;;;24.93;14.03;;;;;;;4.43;92.73;101152.06;1478142;89;21422;-83
2021/11/19 08:05:22;;;;;;;24.53;14.93;;;;;;;4.37;91.44;101151.09;1521201;90;21217;-83
2021/11/19 08:07:49;;;;;;;29.13;16.50;;;;;;;4.36;91.82;101154.66;1368167;90;22176;-83
2021/11/19 08:10:18;;;;;;;26.60;15.20;;;;;;;4.40;92.15;101156.62;1482739;90;21460;-83
2021/11/19 08:12:47;;;;;;;27.07;15.17;;;;;;;4.37;90.86;101156.80;1476786;91;21557;-84
2021/11/19 08:15:21;;;;;;;24.40;16.50;;;;;;;4.35;91.14;101164.77;1415178;92;21607;-84
2021/11/19 08:17:53;;;;;;;24.07;14.50;;;;;;;4.40;91.44;101167.97;1430349;91;22465;-84
2021/11/19 08:20:25;;;;;;;19.60;13.07;;;;;;;4.47;91.51;101167.14;1519120;90;21419;-84
2021/11/19 08:22:54;;;;;;;23.17;14.97;;;;;;;4.46;90.08;101174.16;1431851;90;21422;-83
2021/11/19 08:25:24;;;;;;;25.57;13.27;;;;;;;4.52;90.12;101165.93;1518118;90;21224;-84
2021/11/19 08:28:00;;;;;;;20.43;13.43;;;;;;;4.59;90.54;101162.95;1437138;90;21539;-84
2021/11/19 08:30:35;;;;;;;25.83;13.67;;;;;;;4.60;89.59;101164.62;1444025;89;21544;-84
2021/11/19 08:33:05;;;;;;;21.57;13.67;;;;;;;4.67;89.79;101164.64;1427412;91;21468;-84
2021/11/19 08:35:35;;;;;;;22.93;13.80;;;;;;;4.69;89.11;101166.25;1395961;92;22440;-84
2021/11/19 08:38:04;;;;;;;21.00;13.17;;;;;;;4.77;89.31;101164.45;1415350;92;21441;-83
2021/11/19 08:40:32;;;;;;;21.80;14.70;;;;;;;4.80;89.01;101160.33;1419989;91;21633;-84
2021/11/19 08:42:59;;;;;;;25.50;14.77;;;;;;;4.85;89.47;101161.38;1426531;90;21370;-86
2021/11/19 08:45:30;;;;;;;21.23;13.63;;;;;;;4.91;89.17;101164.47;1440021;90;22317;-84
2021/11/19 08:47:57;;;;;;;23.22;13.72;;;;;;;4.94;88.63;101155.09;1416414;91;23675;-83
2021/11/19 08:50:29;;;;;;;24.13;14.07;;;;;;;5.01;88.25;101141.63;1418280;92;21479;-85
2021/11/19 08:52:59;;;;;;;24.53;14.20;;;;;;;5.11;88.64;101151.91;1399689;91;21305;-84
2021/11/19 08:55:27;;;;;;;24.73;12.77;;;;;;;5.14;87.81;101156.97;1384119;91;22185;-84
2021/11/19 08:57:56;;;;;;;20.50;13.47;;;;;;;5.18;86.95;101165.88;1447768;90;21621;-85
2021/11/19 09:00:28;;;;;;;19.33;13.50;;;;;;;5.22;87.51;101170.94;1423367;91;21835;-84
2021/11/19 09:02:59;;;;;;;19.90;13.63;;;;;;;5.28;87.49;101164.00;1412853;92;21575;-86
2021/11/19 09:05:29;;;;;;;22.63;14.00;;;;;;;5.27;86.43;101165.78;1423359;91;21615;-85
2021/11/19 09:07:56;;;;;;;26.37;13.07;;;;;;;5.35;87.53;101162.66;1441580;91;21497;-85
2021/11/19 09:10:24;;;;;;;25.03;14.03;;;;;;;5.43;86.89;101173.05;1426701;91;21467;-86
2021/11/19 09:12:51;;;;;;;27.30;14.33;;;;;;;5.50;86.72;101176.63;1419789;91;22502;-85
2021/11/19 09:15:22;;;;;;;24.60;14.63;;;;;;;5.45;85.47;101158.53;1424140;91;21527;-87
2021/11/19 09:18:19;;;;;;;28.03;17.30;;;;;;;5.48;86.11;101158.34;1504616;91;21283;-87
2021/11/19 09:21:11;;;;;;;21.37;14.00;;;;;;;5.51;86.51;101167.80;1475922;91;21409;-87
2021/11/19 09:23:50;;;;;;;22.53;13.60;;;;;;;5.59;85.87;101166.86;1444783;91;21771;-87
2021/11/19 09:26:43;;;;;;;20.23;13.57;;;;;;;5.61;85.08;101168.89;1435552;91;22368;-88
2021/11/19 09:29:16;;;;;;;27.57;14.87;;;;;;;5.67;85.79;101175.09;1438060;90;21443;-87
2021/11/19 09:31:45;;;;;;;23.63;15.97;;;;;;;5.80;86.35;101173.34;1440069;90;21570;-87
2021/11/19 09:34:22;;;;;;;19.97;13.83;;;;;;;5.93;86.72;101164.25;1442138;91;21496;-87
2021/11/19 09:36:52;;;;;;;24.80;13.40;;;;;;;5.99;85.14;101153.81;1437345;91;21459;-88
2021/11/19 09:39:26;;;;;;;24.53;15.20;;;;;;;5.95;84.51;101159.72;1442584;91;22368;-87
2021/11/19 09:42:35;;;;;;;22.50;13.80;;;;;;;5.98;84.85;101157.36;1433812;90;21687;-87
2021/11/19 09:45:51;;;;;;;19.90;13.25;;;;;;;6.01;85.00;101166.36;1434834;90;21576;-87
2021/11/19 09:48:41;;;;;;;25.30;14.03;;;;;;;6.03;84.47;101156.59;1436540;90;22619;-88
2021/11/19 09:52:00;;;;;;;22.20;15.10;;;;;;;6.03;84.40;101145.61;1432545;90;22465;-88
2021/11/19 09:54:54;;;;;;;20.67;13.17;;;;;;;6.01;84.45;101144.02;1433294;91;22308;-89
2021/11/19 09:57:50;;;;;;;22.33;15.57;;;;;;;6.01;84.72;101137.01;1434216;91;21437;-89
2021/11/19 10:00:55;;;;;;;22.70;15.07;;;;;;;6.04;85.20;101131.55;1447093;90;22439;-89
2021/11/19 10:03:40;;;;;;;22.90;16.10;;;;;;;6.05;85.01;101124.02;1442342;90;22366;-89
2021/11/19 10:06:27;;;;;;;18.67;13.87;;;;;;;6.06;85.31;101127.49;1455828;90;21361;-89
2021/11/19 10:09:06;;;;;;;25.67;15.00;;;;;;;6.06;84.92;101137.52;1438329;90;22494;-89
2021/11/19 10:12:09;;;;;;;25.20;16.27;;;;;;;6.12;85.66;101134.97;1427165;90;22475;-89
2021/11/19 10:15:03;;;;;;;23.53;14.27;;;;;;;6.14;85.36;101126.52;1423641;90;21433;-89
2021/11/19 10:17:40;;;;;;;23.20;14.60;;;;;;;6.19;85.47;101124.43;1440008;90;21537;-89
2021/11/19 10:20:25;;;;;;;19.07;13.77;;;;;;;6.19;85.10;101109.97;1440840;90;21455;-89
2021/11/19 10:23:03;;;;;;;22.17;14.03;;;;;;;6.22;85.20;101101.05;1448297;90;21441;-89
2021/11/19 10:25:54;;;;;;;25.00;15.27;;;;;;;6.25;85.24;101095.09;1437876;90;22631;-89
2021/11/19 10:28:41;;;;;;;22.93;15.03;;;;;;;6.26;85.47;101091.52;1433754;91;21330;-88
2021/11/19 10:31:13;;;;;;;22.30;15.97;;;;;;;6.25;84.91;101081.95;1445933;91;22498;-85
2021/11/19 10:33:58;;;;;;;32.93;19.30;;;;;;;6.27;85.21;101077.44;1439369;91;21345;-84
2021/11/19 10:36:45;;;;;;;29.17;19.37;;;;;;;6.35;85.57;101076.06;1416718;90;21434;-87
2021/11/19 10:40:12;;;;;;;22.93;15.03;;;;;;;6.42;85.91;101072.09;1438566;90;21461;-85
2021/11/19 10:43:09;;;;;;;19.93;14.07;;;;;;;6.45;85.70;101078.45;1407630;93;21545;-85
2021/11/19 10:45:52;;;;;;;20.57;13.77;;;;;;;6.47;85.30;101101.06;1379204;94;21651;-85
2021/11/19 10:48:45;;;;;;;24.90;15.07;;;;;;;6.51;85.55;101105.64;1422545;90;21491;-84
2021/11/19 10:51:54;;;;;;;23.47;15.10;;;;;;;6.57;85.87;101112.27;1441051;90;22328;-85
2021/11/19 10:54:52;;;;;;;21.70;15.60;;;;;;;6.67;85.77;101101.47;1434433;91;22449;-85
2021/11/19 10:57:44;;;;;;;20.27;15.00;;;;;;;6.67;85.23;101100.98;1442375;90;21396;-85
2021/11/19 11:00:35;;;;;;;27.20;16.10;;;;;;;6.68;85.30;101101.37;1436026;91;21307;-85
2021/11/19 11:03:16;;;;;;;22.55;15.28;;;;;;;6.71;85.20;101107.73;1433261;90;21700;-85
2021/11/19 11:05:47;;;;;;;23.98;15.32;;;;;;;6.76;85.35;101106.95;1436734;91;21588;-88
2021/11/19 11:08:23;;;;;;;;;;;;;;;6.78;85.15;101098.45;1447609;90;22142;-88
2021/11/19 11:11:08;;;;;;;25.57;14.67;;;;;;;6.80;85.25;101098.36;1439498;89;20305;-88
2021/11/19 11:14:07;;;;;;;29.37;15.47;;;;;;;6.81;84.86;101096.57;1438521;91;22105;-88
2021/11/19 11:16:45;;;;;;;24.40;15.23;;;;;;;6.83;84.91;101094.69;1428338;91;22442;-88
2021/11/19 11:19:18;;;;;;;23.80;14.67;;;;;;;6.85;84.56;101090.13;1435210;91;22523;-87
2021/11/19 11:21:56;;;;;;;18.80;14.33;;;;;;;6.86;83.92;101091.83;1433277;91;21430;-89
2021/11/19 11:24:29;;;;;;;20.53;14.60;;;;;;;6.89;83.78;101088.50;1434308;91;21392;-85
2021/11/19 11:27:32;;;;;;;22.63;15.73;;;;;;;6.91;83.10;101076.58;1431885;91;22524;-86
2021/11/19 11:30:23;;;;;;;22.53;14.83;;;;;;;6.95;83.43;101067.50;1427423;91;21407;-88
2021/11/19 11:33:07;;;;;;;20.68;14.93;;;;;;;7.01;83.77;101074.95;1435711;91;21386;-85
2021/11/19 11:35:43;;;;;;;22.40;15.23;;;;;;;7.10;83.51;101079.56;1436308;90;21466;-87
2021/11/19 11:38:25;;;;;;;18.53;14.60;;;;;;;7.14;82.91;101079.73;1431815;91;21593;-86
2021/11/19 11:41:22;;;;;;;19.70;13.97;;;;;;;7.16;82.87;101076.52;1435319;90;21688;-87
2021/11/19 11:44:07;;;;;;;22.67;15.40;;;;;;;7.11;82.54;101059.37;1438039;91;22501;-87
2021/11/19 11:46:39;;;;;;;19.53;14.33;;;;;;;7.14;83.31;101049.45;1433896;90;21466;-88
2021/11/19 11:49:21;;;;;;;30.40;15.93;;;;;;;7.18;82.97;101042.16;1428280;91;21571;-87